Wild Iris — 2BKM2 — position and weather

sailwx.info

Track history (hours):
 
Tides and Currents Weather Stations Pressure Air Temp Water Temp Dewpoint Dewpoint Depression Visibility Wind Speed Wind Dir Waves Ship Positions

Wild Iris

Last reported at 2018-Mar-03 11:32 UTC. Time now 2018-Jun-22 03:20 UTC.
Position N 17°34' W 063°11'.
Warning: this ship's position is months out of date.

Length 11 m.

Type: Sailing vessel. MMSI: 235066909.

Date/timePositionNaut miles runAvg speedWind from/ knotsBaromVisibWave heightAir tempDewpointWater temp
2018-Mar-03 11:32N 17°34' W 063°11'1 4.3
2018-Mar-03 11:22N 17°35' W 063°11'5 5.0
2018-Mar-03 10:22N 17°37' W 063°16'  
2018-Feb-28 21:37N 17°38' W 063°15'0 2.2
2018-Feb-28 21:25N 17°39' W 063°16'3 6.0
2018-Feb-28 20:56N 17°41' W 063°16'2 4.2
2018-Feb-28 20:26N 17°44' W 063°16'2 3.9
2018-Feb-28 19:56N 17°45' W 063°15'3 4.2
2018-Feb-28 19:07N 17°49' W 063°15'1 4.0
2018-Feb-28 18:56N 17°50' W 063°15'2 4.4
2018-Feb-28 18:27N 17°52' W 063°14'2 4.2
2018-Feb-28 17:55N 17°54' W 063°14'2 4.8
2018-Feb-28 17:28N 17°56' W 063°14'3 5.7
2018-Feb-28 16:58N 17°59' W 063°13'3 5.8
2018-Feb-28 16:26N 18°02' W 063°13'2 4.4
2018-Feb-28 15:56N 18°04' W 063°12'2 4.9
2018-Feb-28 15:28N 18°06' W 063°12'3 4.6
2018-Feb-28 14:54N 18°09' W 063°11'2 4.8
2018-Feb-28 14:27N 18°11' W 063°10'  
2018-Feb-24 17:54N 18°12' W 063°07'2 5.5
2018-Feb-24 17:30N 18°13' W 063°09'2 3.4
2018-Feb-24 16:54N 18°12' W 063°11'2 5.8
2018-Feb-24 16:30N 18°09' W 063°11'4 7.5
2018-Feb-24 16:00N 18°06' W 063°10'2 4.0
2018-Feb-24 15:29N 18°04' W 063°09'4 5.7
2018-Feb-24 14:52N 18°02' W 063°06'0 1.1
2018-Feb-24 14:28N 18°02' W 063°06'  
Track history (hours):
 
Tides and Currents Weather Stations Pressure Air Temp Water Temp Dewpoint Dewpoint Depression Visibility Wind Speed Wind Dir Waves Ship Positions

Wild Iris

Last reported at 2018-Mar-03 11:32 UTC. Time now 2018-Jun-22 03:20 UTC.
Position N 17°34' W 063°11'.
Warning: this ship's position is months out of date.

Length 11 m.

Type: Sailing vessel. MMSI: 235066909.

Date/timePositionNaut miles runAvg speedWind from/ knotsBaromVisibWave heightAir tempDewpointWater temp
2018-Mar-03 11:32N 17°34' W 063°11'1 4.3
2018-Mar-03 11:22N 17°35' W 063°11'5 5.0
2018-Mar-03 10:22N 17°37' W 063°16'  
2018-Feb-28 21:37N 17°38' W 063°15'0 2.2
2018-Feb-28 21:25N 17°39' W 063°16'3 6.0
2018-Feb-28 20:56N 17°41' W 063°16'2 4.2
2018-Feb-28 20:26N 17°44' W 063°16'2 3.9
2018-Feb-28 19:56N 17°45' W 063°15'3 4.2
2018-Feb-28 19:07N 17°49' W 063°15'1 4.0
2018-Feb-28 18:56N 17°50' W 063°15'2 4.4
2018-Feb-28 18:27N 17°52' W 063°14'2 4.2
2018-Feb-28 17:55N 17°54' W 063°14'2 4.8
2018-Feb-28 17:28N 17°56' W 063°14'3 5.7
2018-Feb-28 16:58N 17°59' W 063°13'3 5.8
2018-Feb-28 16:26N 18°02' W 063°13'2 4.4
2018-Feb-28 15:56N 18°04' W 063°12'2 4.9
2018-Feb-28 15:28N 18°06' W 063°12'3 4.6
2018-Feb-28 14:54N 18°09' W 063°11'2 4.8
2018-Feb-28 14:27N 18°11' W 063°10'  
2018-Feb-24 17:54N 18°12' W 063°07'2 5.5
2018-Feb-24 17:30N 18°13' W 063°09'2 3.4
2018-Feb-24 16:54N 18°12' W 063°11'2 5.8
2018-Feb-24 16:30N 18°09' W 063°11'4 7.5
2018-Feb-24 16:00N 18°06' W 063°10'2 4.0
2018-Feb-24 15:29N 18°04' W 063°09'4 5.7
2018-Feb-24 14:52N 18°02' W 063°06'0 1.1
2018-Feb-24 14:28N 18°02' W 063°06'  

Dump ship's entire track history